sensor_id;sensor_type;location;lat;lon;timestamp;pressure;altitude;pressure_sealevel;temperature;humidity
49216;BME280;45943;53.148;8.204;2023-08-20T00:00:18;102126.63;;;22.04;100.00
49216;BME280;45943;53.148;8.204;2023-08-20T00:02:45;102129.38;;;22.04;100.00
49216;BME280;45943;53.148;8.204;2023-08-20T00:05:12;102129.38;;;22.04;100.00
49216;BME280;45943;53.148;8.204;2023-08-20T00:07:39;102127.66;;;22.03;100.00
49216;BME280;45943;53.148;8.204;2023-08-20T00:10:08;102133.28;;;22.02;100.00
49216;BME280;45943;53.148;8.204;2023-08-20T00:12:35;102126.81;;;22.03;100.00
49216;BME280;45943;53.148;8.204;2023-08-20T00:15:01;102129.06;;;22.08;100.00
49216;BME280;45943;53.148;8.204;2023-08-20T00:17:32;102126.31;;;22.08;100.00
49216;BME280;45943;53.148;8.204;2023-08-20T00:20:03;102122.19;;;22.03;100.00
49216;BME280;45943;53.148;8.204;2023-08-20T00:22:36;102123.53;;;21.99;100.00
49216;BME280;45943;53.148;8.204;2023-08-20T00:25:03;102123.72;;;21.98;100.00
49216;BME280;45943;53.148;8.204;2023-08-20T00:27:32;102127.47;;;21.97;100.00
49216;BME280;45943;53.148;8.204;2023-08-20T00:29:58;102125.22;;;21.92;100.00
49216;BME280;45943;53.148;8.204;2023-08-20T00:32:24;102121.97;;;21.89;100.00
49216;BME280;45943;53.148;8.204;2023-08-20T00:34:50;102124.88;;;21.87;100.00
49216;BME280;45943;53.148;8.204;2023-08-20T00:37:16;102122.16;;;21.87;100.00
49216;BME280;45943;53.148;8.204;2023-08-20T00:39:42;102120.28;;;21.88;100.00
49216;BME280;45943;53.148;8.204;2023-08-20T00:42:08;102123.69;;;21.90;100.00
49216;BME280;45943;53.148;8.204;2023-08-20T00:44:35;102129.16;;;21.90;100.00
49216;BME280;45943;53.148;8.204;2023-08-20T00:47:01;102124.72;;;21.89;100.00
49216;BME280;45943;53.148;8.204;2023-08-20T00:49:29;102125.34;;;21.83;100.00
49216;BME280;45943;53.148;8.204;2023-08-20T00:51:55;102126.94;;;21.85;100.00
49216;BME280;45943;53.148;8.204;2023-08-20T00:54:22;102128.28;;;21.89;100.00
49216;BME280;45943;53.148;8.204;2023-08-20T00:56:49;102130.50;;;21.86;100.00
49216;BME280;45943;53.148;8.204;2023-08-20T00:59:16;102128.44;;;21.80;100.00
49216;BME280;45943;53.148;8.204;2023-08-20T01:01:42;102133.22;;;21.77;100.00
49216;BME280;45943;53.148;8.204;2023-08-20T01:04:09;102130.13;;;21.81;100.00
49216;BME280;45943;53.148;8.204;2023-08-20T01:06:46;102132.03;;;21.80;100.00
49216;BME280;45943;53.148;8.204;2023-08-20T01:12:00;102122.81;;;21.89;100.00
49216;BME280;45943;53.148;8.204;2023-08-20T01:14:28;102113.94;;;21.87;100.00
49216;BME280;45943;53.148;8.204;2023-08-20T01:16:54;102120.25;;;21.80;100.00
49216;BME280;45943;53.148;8.204;2023-08-20T01:19:21;102127.38;;;21.72;100.00
49216;BME280;45943;53.148;8.204;2023-08-20T01:21:56;102129.09;;;21.65;100.00
49216;BME280;45943;53.148;8.204;2023-08-20T01:28:02;102126.34;;;21.65;100.00
49216;BME280;45943;53.148;8.204;2023-08-20T01:30:48;102131.00;;;21.73;100.00
49216;BME280;45943;53.148;8.204;2023-08-20T01:33:15;102125.03;;;21.77;100.00
49216;BME280;45943;53.148;8.204;2023-08-20T01:35:42;102137.13;;;21.75;100.00
49216;BME280;45943;53.148;8.204;2023-08-20T01:38:08;102134.88;;;21.70;100.00
49216;BME280;45943;53.148;8.204;2023-08-20T01:40:34;102145.28;;;21.67;100.00
49216;BME280;45943;53.148;8.204;2023-08-20T01:43:00;102145.28;;;21.67;100.00
49216;BME280;45943;53.148;8.204;2023-08-20T01:45:26;102147.34;;;21.65;100.00
49216;BME280;45943;53.148;8.204;2023-08-20T01:47:52;102143.38;;;21.59;100.00
49216;BME280;45943;53.148;8.204;2023-08-20T01:50:18;102142.34;;;21.60;100.00
49216;BME280;45943;53.148;8.204;2023-08-20T01:52:44;102140.47;;;21.61;100.00
49216;BME280;45943;53.148;8.204;2023-08-20T01:55:11;102134.50;;;21.57;100.00
49216;BME280;45943;53.148;8.204;2023-08-20T01:57:37;102135.31;;;21.50;100.00
49216;BME280;45943;53.148;8.204;2023-08-20T02:00:03;102139.72;;;21.42;100.00
49216;BME280;45943;53.148;8.204;2023-08-20T02:02:33;102136.78;;;21.36;100.00
49216;BME280;45943;53.148;8.204;2023-08-20T02:05:00;102137.94;;;21.33;100.00
49216;BME280;45943;53.148;8.204;2023-08-20T02:07:26;102142.03;;;21.29;100.00
49216;BME280;45943;53.148;8.204;2023-08-20T02:09:52;102136.91;;;21.26;100.00
49216;BME280;45943;53.148;8.204;2023-08-20T02:12:18;102134.31;;;21.25;100.00
49216;BME280;45943;53.148;8.204;2023-08-20T02:14:44;102134.19;;;21.26;100.00
49216;BME280;45943;53.148;8.204;2023-08-20T02:17:10;102134.19;;;21.26;100.00
49216;BME280;45943;53.148;8.204;2023-08-20T02:19:39;102137.09;;;21.33;100.00
49216;BME280;45943;53.148;8.204;2023-08-20T02:22:05;102146.69;;;21.37;100.00
49216;BME280;45943;53.148;8.204;2023-08-20T02:24:31;102142.25;;;21.36;100.00
49216;BME280;45943;53.148;8.204;2023-08-20T02:26:57;102151.25;;;21.28;100.00
49216;BME280;45943;53.148;8.204;2023-08-20T02:29:23;102151.16;;;21.20;100.00
49216;BME280;45943;53.148;8.204;2023-08-20T02:31:49;102159.13;;;21.13;100.00
49216;BME280;45943;53.148;8.204;2023-08-20T02:34:15;102167.63;;;21.10;100.00
49216;BME280;45943;53.148;8.204;2023-08-20T02:36:41;102169.19;;;21.13;100.00
49216;BME280;45943;53.148;8.204;2023-08-20T02:39:07;102164.75;;;21.12;100.00
49216;BME280;45943;53.148;8.204;2023-08-20T02:41:34;102165.94;;;21.09;100.00
49216;BME280;45943;53.148;8.204;2023-08-20T02:44:01;102158.94;;;21.07;100.00
49216;BME280;45943;53.148;8.204;2023-08-20T02:46:28;102156.38;;;21.05;100.00
49216;BME280;45943;53.148;8.204;2023-08-20T02:48:54;102159.19;;;20.96;100.00
49216;BME280;45943;53.148;8.204;2023-08-20T02:51:21;102165.44;;;20.88;100.00
49216;BME280;45943;53.148;8.204;2023-08-20T02:53:46;102159.47;;;20.84;100.00
49216;BME280;45943;53.148;8.204;2023-08-20T02:56:12;102162.81;;;20.78;100.00
49216;BME280;45943;53.148;8.204;2023-08-20T02:58:38;102166.91;;;20.82;100.00
49216;BME280;45943;53.148;8.204;2023-08-20T03:01:05;102170.19;;;20.86;100.00
49216;BME280;45943;53.148;8.204;2023-08-20T03:03:31;102177.03;;;20.90;100.00
49216;BME280;45943;53.148;8.204;2023-08-20T03:05:57;102179.06;;;20.88;100.00
49216;BME280;45943;53.148;8.204;2023-08-20T03:08:23;102177.19;;;20.88;100.00
49216;BME280;45943;53.148;8.204;2023-08-20T03:10:49;102176.88;;;20.91;100.00
49216;BME280;45943;53.148;8.204;2023-08-20T03:13:15;102172.66;;;20.97;100.00
49216;BME280;45943;53.148;8.204;2023-08-20T03:15:41;102173.38;;;20.99;100.00
49216;BME280;45943;53.148;8.204;2023-08-20T03:18:07;102168.22;;;20.96;100.00
49216;BME280;45943;53.148;8.204;2023-08-20T03:20:33;102166.66;;;20.94;100.00
49216;BME280;45943;53.148;8.204;2023-08-20T03:23:00;102165.81;;;20.93;100.00
49216;BME280;45943;53.148;8.204;2023-08-20T03:25:26;102164.94;;;20.92;100.00
49216;BME280;45943;53.148;8.204;2023-08-20T03:27:52;102173.47;;;20.89;100.00
49216;BME280;45943;53.148;8.204;2023-08-20T03:30:19;102172.44;;;20.90;100.00
49216;BME280;45943;53.148;8.204;2023-08-20T03:32:45;102180.09;;;20.87;100.00
49216;BME280;45943;53.148;8.204;2023-08-20T03:35:11;102179.25;;;20.86;100.00
49216;BME280;45943;53.148;8.204;2023-08-20T03:37:37;102177.56;;;20.94;100.00
49216;BME280;45943;53.148;8.204;2023-08-20T03:40:03;102188.63;;;20.92;100.00
49216;BME280;45943;53.148;8.204;2023-08-20T03:42:30;102179.44;;;20.93;100.00
49216;BME280;45943;53.148;8.204;2023-08-20T03:44:56;102182.91;;;20.95;100.00
49216;BME280;45943;53.148;8.204;2023-08-20T03:47:22;102187.94;;;20.90;100.00
49216;BME280;45943;53.148;8.204;2023-08-20T03:49:48;102191.16;;;20.85;100.00
49216;BME280;45943;53.148;8.204;2023-08-20T03:52:14;102190.59;;;20.82;100.00
49216;BME280;45943;53.148;8.204;2023-08-20T03:54:40;102190.59;;;20.82;100.00
49216;BME280;45943;53.148;8.204;2023-08-20T03:57:06;102186.34;;;20.79;100.00
49216;BME280;45943;53.148;8.204;2023-08-20T03:59:32;102183.84;;;20.68;100.00
49216;BME280;45943;53.148;8.204;2023-08-20T04:01:58;102185.66;;;20.59;100.00
49216;BME280;45943;53.148;8.204;2023-08-20T04:04:24;102169.22;;;20.51;100.00
49216;BME280;45943;53.148;8.204;2023-08-20T04:06:51;102158.47;;;20.50;100.00
49216;BME280;45943;53.148;8.204;2023-08-20T04:09:17;102159.47;;;20.49;100.00
49216;BME280;45943;53.148;8.204;2023-08-20T04:11:43;102149.28;;;20.51;100.00
49216;BME280;45943;53.148;8.204;2023-08-20T04:14:09;102144.84;;;20.50;100.00
49216;BME280;45943;53.148;8.204;2023-08-20T04:16:35;102138.53;;;20.49;100.00
49216;BME280;45943;53.148;8.204;2023-08-20T04:19:01;102133.53;;;20.45;100.00
49216;BME280;45943;53.148;8.204;2023-08-20T04:21:27;102133.81;;;20.42;100.00
49216;BME280;45943;53.148;8.204;2023-08-20T04:23:53;102135.69;;;20.41;100.00
49216;BME280;45943;53.148;8.204;2023-08-20T04:26:19;102148.31;;;20.42;100.00
49216;BME280;45943;53.148;8.204;2023-08-20T04:28:45;102155.41;;;20.53;100.00
49216;BME280;45943;53.148;8.204;2023-08-20T04:31:11;102161.97;;;20.60;100.00
49216;BME280;45943;53.148;8.204;2023-08-20T04:33:37;102171.53;;;20.64;100.00
49216;BME280;45943;53.148;8.204;2023-08-20T04:36:03;102168.50;;;20.67;100.00
49216;BME280;45943;53.148;8.204;2023-08-20T04:38:29;102170.59;;;20.73;100.00
49216;BME280;45943;53.148;8.204;2023-08-20T04:40:55;102166.16;;;20.72;100.00
49216;BME280;45943;53.148;8.204;2023-08-20T04:43:21;102176.03;;;20.73;100.00
49216;BME280;45943;53.148;8.204;2023-08-20T04:45:47;102169.56;;;20.74;100.00
49216;BME280;45943;53.148;8.204;2023-08-20T04:48:13;102173.47;;;20.72;100.00
49216;BME280;45943;53.148;8.204;2023-08-20T04:50:39;102185.16;;;20.64;100.00
49216;BME280;45943;53.148;8.204;2023-08-20T04:53:05;102179.19;;;20.60;100.00
49216;BME280;45943;53.148;8.204;2023-08-20T04:55:31;102179.88;;;20.62;100.00
49216;BME280;45943;53.148;8.204;2023-08-20T04:57:57;102184.94;;;20.57;100.00
49216;BME280;45943;53.148;8.204;2023-08-20T05:00:23;102200.66;;;20.63;100.00
49216;BME280;45943;53.148;8.204;2023-08-20T05:02:49;102212.50;;;20.72;100.00
49216;BME280;45943;53.148;8.204;2023-08-20T05:05:15;102208.00;;;20.81;100.00
49216;BME280;45943;53.148;8.204;2023-08-20T05:07:41;102208.38;;;20.86;100.00
49216;BME280;45943;53.148;8.204;2023-08-20T05:10:07;102221.69;;;20.89;100.00
49216;BME280;45943;53.148;8.204;2023-08-20T05:12:34;102218.56;;;20.84;100.00
49216;BME280;45943;53.148;8.204;2023-08-20T05:15:01;102228.34;;;20.86;100.00
49216;BME280;45943;53.148;8.204;2023-08-20T05:17:27;102220.53;;;20.91;100.00
49216;BME280;45943;53.148;8.204;2023-08-20T05:19:53;102221.69;;;20.89;100.00
49216;BME280;45943;53.148;8.204;2023-08-20T05:22:19;102234.16;;;20.74;100.00
49216;BME280;45943;53.148;8.204;2023-08-20T05:24:45;102230.06;;;20.70;100.00
49216;BME280;45943;53.148;8.204;2023-08-20T05:29:42;102228.50;;;20.67;100.00
49216;BME280;45943;53.148;8.204;2023-08-20T05:32:09;102222.19;;;20.67;100.00
49216;BME280;45943;53.148;8.204;2023-08-20T05:34:35;102226.63;;;20.68;100.00
49216;BME280;45943;53.148;8.204;2023-08-20T05:37:01;102229.34;;;20.68;100.00
49216;BME280;45943;53.148;8.204;2023-08-20T05:39:30;102227.00;;;20.73;100.00
49216;BME280;45943;53.148;8.204;2023-08-20T05:42:02;102222.47;;;20.81;100.00
49216;BME280;45943;53.148;8.204;2023-08-20T05:44:28;102222.88;;;20.86;100.00
49216;BME280;45943;53.148;8.204;2023-08-20T05:46:54;102227.16;;;20.89;100.00
49216;BME280;45943;53.148;8.204;2023-08-20T05:49:20;102226.53;;;20.95;100.00
49216;BME280;45943;53.148;8.204;2023-08-20T05:51:46;102233.44;;;21.07;100.00
49216;BME280;45943;53.148;8.204;2023-08-20T05:54:12;102237.63;;;21.19;100.00
49216;BME280;45943;53.148;8.204;2023-08-20T05:56:38;102232.00;;;21.21;100.00
49216;BME280;45943;53.148;8.204;2023-08-20T05:59:04;102236.78;;;21.19;100.00
49216;BME280;45943;53.148;8.204;2023-08-20T06:01:30;102236.41;;;21.14;100.00
49216;BME280;45943;53.148;8.204;2023-08-20T06:03:57;102225.50;;;21.14;100.00
49216;BME280;45943;53.148;8.204;2023-08-20T06:06:22;102228.97;;;21.24;100.00
49216;BME280;45943;53.148;8.204;2023-08-20T06:08:48;102222.91;;;21.30;100.00
49216;BME280;45943;53.148;8.204;2023-08-20T06:11:14;102226.03;;;21.35;100.00
49216;BME280;45943;53.148;8.204;2023-08-20T06:13:41;102226.06;;;21.43;100.00
49216;BME280;45943;53.148;8.204;2023-08-20T06:16:07;102241.47;;;21.53;100.00
49216;BME280;45943;53.148;8.204;2023-08-20T06:18:33;102237.06;;;21.60;100.00
49216;BME280;45943;53.148;8.204;2023-08-20T06:20:59;102232.91;;;21.73;100.00
49216;BME280;45943;53.148;8.204;2023-08-20T06:23:25;102237.06;;;21.86;100.00
49216;BME280;45943;53.148;8.204;2023-08-20T06:25:51;102232.66;;;21.93;100.00
49216;BME280;45943;53.148;8.204;2023-08-20T06:28:17;102234.03;;;21.97;100.00
49216;BME280;45943;53.148;8.204;2023-08-20T06:30:44;102240.88;;;22.01;100.00
49216;BME280;45943;53.148;8.204;2023-08-20T06:33:11;102237.72;;;22.14;100.00
49216;BME280;45943;53.148;8.204;2023-08-20T06:35:37;102240.78;;;22.19;100.00
49216;BME280;45943;53.148;8.204;2023-08-20T06:38:04;102234.84;;;22.23;100.00
49216;BME280;45943;53.148;8.204;2023-08-20T06:40:30;102232.97;;;22.24;100.00
49216;BME280;45943;53.148;8.204;2023-08-20T06:42:56;102243.75;;;22.25;100.00
49216;BME280;45943;53.148;8.204;2023-08-20T06:45:22;102243.41;;;22.28;100.00
49216;BME280;45943;53.148;8.204;2023-08-20T06:47:48;102241.91;;;22.42;100.00
49216;BME280;45943;53.148;8.204;2023-08-20T06:50:14;102241.22;;;22.48;100.00
49216;BME280;45943;53.148;8.204;2023-08-20T06:52:40;102239.88;;;22.44;100.00
49216;BME280;45943;53.148;8.204;2023-08-20T06:55:06;102235.75;;;22.48;100.00
49216;BME280;45943;53.148;8.204;2023-08-20T06:57:33;102238.47;;;22.40;100.00
49216;BME280;45943;53.148;8.204;2023-08-20T06:59:59;102244.97;;;22.47;100.00
49216;BME280;45943;53.148;8.204;2023-08-20T07:02:25;102248.06;;;22.60;100.00
49216;BME280;45943;53.148;8.204;2023-08-20T07:04:51;102250.16;;;22.75;100.00
49216;BME280;45943;53.148;8.204;2023-08-20T07:07:17;102258.25;;;22.84;100.00
49216;BME280;45943;53.148;8.204;2023-08-20T07:09:43;102251.94;;;22.92;100.00
49216;BME280;45943;53.148;8.204;2023-08-20T07:12:09;102252.75;;;23.01;100.00
49216;BME280;45943;53.148;8.204;2023-08-20T07:14:35;102243.88;;;23.07;100.00
49216;BME280;45943;53.148;8.204;2023-08-20T07:17:01;102241.16;;;23.15;100.00
49216;BME280;45943;53.148;8.204;2023-08-20T07:19:28;102248.81;;;23.19;100.00
49216;BME280;45943;53.148;8.204;2023-08-20T07:21:54;102251.56;;;23.28;100.00
49216;BME280;45943;53.148;8.204;2023-08-20T07:24:20;102246.75;;;23.38;100.00
49216;BME280;45943;53.148;8.204;2023-08-20T07:26:53;102244.38;;;23.35;100.00
49216;BME280;45943;53.148;8.204;2023-08-20T07:29:25;102260.63;;;23.44;100.00
49216;BME280;45943;53.148;8.204;2023-08-20T07:31:51;102246.25;;;23.51;100.00
49216;BME280;45943;53.148;8.204;2023-08-20T07:34:17;102256.84;;;23.70;100.00
49216;BME280;45943;53.148;8.204;2023-08-20T07:36:44;102257.66;;;23.79;100.00
49216;BME280;45943;53.148;8.204;2023-08-20T07:39:10;102259.84;;;23.91;100.00
49216;BME280;45943;53.148;8.204;2023-08-20T07:41:37;102253.16;;;23.94;100.00
49216;BME280;45943;53.148;8.204;2023-08-20T07:44:04;102259.34;;;23.88;100.00
49216;BME280;45943;53.148;8.204;2023-08-20T07:46:30;102263.28;;;23.85;100.00
49216;BME280;45943;53.148;8.204;2023-08-20T07:48:56;102253.69;;;23.89;100.00
49216;BME280;45943;53.148;8.204;2023-08-20T07:51:22;102256.91;;;24.01;100.00
49216;BME280;45943;53.148;8.204;2023-08-20T07:53:48;102264.56;;;24.14;100.00
49216;BME280;45943;53.148;8.204;2023-08-20T07:56:14;102256.81;;;24.17;100.00
49216;BME280;45943;53.148;8.204;2023-08-20T07:58:40;102261.13;;;24.20;100.00
49216;BME280;45943;53.148;8.204;2023-08-20T08:01:06;102261.59;;;24.23;100.00
49216;BME280;45943;53.148;8.204;2023-08-20T08:03:32;102254.56;;;24.29;100.00
49216;BME280;45943;53.148;8.204;2023-08-20T08:05:58;102257.25;;;24.37;100.00
49216;BME280;45943;53.148;8.204;2023-08-20T08:08:24;102263.06;;;24.42;100.00
49216;BME280;45943;53.148;8.204;2023-08-20T08:10:50;102261.31;;;24.49;100.00
49216;BME280;45943;53.148;8.204;2023-08-20T08:13:18;102259.72;;;24.55;100.00
49216;BME280;45943;53.148;8.204;2023-08-20T08:15:48;102262.28;;;24.56;100.00
49216;BME280;45943;53.148;8.204;2023-08-20T08:18:15;102253.53;;;24.61;100.00
49216;BME280;45943;53.148;8.204;2023-08-20T08:20:41;102256.28;;;24.61;100.00
49216;BME280;45943;53.148;8.204;2023-08-20T08:23:07;102261.34;;;24.72;100.00
49216;BME280;45943;53.148;8.204;2023-08-20T08:25:33;102263.03;;;24.73;100.00
49216;BME280;45943;53.148;8.204;2023-08-20T08:27:59;102251.88;;;24.75;100.00
49216;BME280;45943;53.148;8.204;2023-08-20T08:30:25;102253.59;;;24.76;100.00
49216;BME280;45943;53.148;8.204;2023-08-20T08:32:51;102260.44;;;24.80;100.00
49216;BME280;45943;53.148;8.204;2023-08-20T08:35:17;102264.38;;;24.77;100.00
49216;BME280;45943;53.148;8.204;2023-08-20T08:37:44;102261.47;;;24.79;100.00
49216;BME280;45943;53.148;8.204;2023-08-20T08:40:10;102262.63;;;24.84;100.00
49216;BME280;45943;53.148;8.204;2023-08-20T08:42:36;102259.63;;;24.94;100.00
49216;BME280;45943;53.148;8.204;2023-08-20T08:45:02;102259.75;;;25.01;100.00
49216;BME280;45943;53.148;8.204;2023-08-20T08:47:29;102262.50;;;25.01;100.00
49216;BME280;45943;53.148;8.204;2023-08-20T08:49:55;102263.34;;;25.01;100.00
49216;BME280;45943;53.148;8.204;2023-08-20T08:52:22;102266.53;;;25.13;100.00
49216;BME280;45943;53.148;8.204;2023-08-20T08:54:48;102264.97;;;25.19;100.00
49216;BME280;45943;53.148;8.204;2023-08-20T08:57:15;102272.19;;;25.34;100.00
49216;BME280;45943;53.148;8.204;2023-08-20T08:59:42;102269.81;;;25.46;100.00
49216;BME280;45943;53.148;8.204;2023-08-20T09:02:09;102269.28;;;25.51;100.00
49216;BME280;45943;53.148;8.204;2023-08-20T09:04:40;102273.53;;;25.53;100.00
49216;BME280;45943;53.148;8.204;2023-08-20T09:07:11;102266.66;;;25.57;100.00
49216;BME280;45943;53.148;8.204;2023-08-20T09:09:41;102266.66;;;25.57;100.00
49216;BME280;45943;53.148;8.204;2023-08-20T09:12:14;102269.78;;;25.69;100.00
49216;BME280;45943;53.148;8.204;2023-08-20T09:14:48;102274.84;;;25.80;100.00
49216;BME280;45943;53.148;8.204;2023-08-20T09:17:15;102270.66;;;25.84;100.00
49216;BME280;45943;53.148;8.204;2023-08-20T09:19:42;102276.16;;;25.84;100.00
49216;BME280;45943;53.148;8.204;2023-08-20T09:22:11;102275.78;;;25.72;100.00
49216;BME280;45943;53.148;8.204;2023-08-20T09:24:39;102273.88;;;25.73;100.00
49216;BME280;45943;53.148;8.204;2023-08-20T09:27:13;102276.25;;;25.76;100.00
49216;BME280;45943;53.148;8.204;2023-08-20T09:29:53;102286.09;;;25.85;100.00
49216;BME280;45943;53.148;8.204;2023-08-20T09:32:22;102278.91;;;25.84;100.00
49216;BME280;45943;53.148;8.204;2023-08-20T09:34:49;102282.06;;;25.96;100.00
49216;BME280;45943;53.148;8.204;2023-08-20T09:37:17;102288.97;;;26.07;100.00
49216;BME280;45943;53.148;8.204;2023-08-20T09:39:44;102283.34;;;26.15;100.00
49216;BME280;45943;53.148;8.204;2023-08-20T09:42:11;102281.84;;;26.27;100.00
49216;BME280;45943;53.148;8.204;2023-08-20T09:44:38;102279.47;;;26.39;100.00
49216;BME280;45943;53.148;8.204;2023-08-20T09:47:10;102282.31;;;26.45;100.00
49216;BME280;45943;53.148;8.204;2023-08-20T09:49:43;102277.06;;;26.50;100.00
49216;BME280;45943;53.148;8.204;2023-08-20T09:52:16;102284.59;;;26.63;100.00
49216;BME280;45943;53.148;8.204;2023-08-20T09:54:55;102278.00;;;26.79;100.00
49216;BME280;45943;53.148;8.204;2023-08-20T09:57:35;102275.59;;;26.91;100.00
49216;BME280;45943;53.148;8.204;2023-08-20T10:00:04;102280.69;;;26.94;100.00
49216;BME280;45943;53.148;8.204;2023-08-20T10:09:48;102287.81;;;27.24;100.00
49216;BME280;45943;53.148;8.204;2023-08-20T10:12:16;102295.69;;;27.27;100.00
49216;BME280;45943;53.148;8.204;2023-08-20T10:14:42;102298.50;;;27.34;100.00
49216;BME280;45943;53.148;8.204;2023-08-20T10:17:08;102292.00;;;27.20;100.00
49216;BME280;45943;53.148;8.204;2023-08-20T10:19:37;102294.03;;;27.11;100.00
49216;BME280;45943;53.148;8.204;2023-08-20T10:22:07;102294.97;;;26.82;100.00
49216;BME280;45943;53.148;8.204;2023-08-20T10:24:49;102286.16;;;26.51;100.00
49216;BME280;45943;53.148;8.204;2023-08-20T10:27:39;102281.94;;;26.70;100.00
49216;BME280;45943;53.148;8.204;2023-08-20T10:30:10;102279.22;;;27.12;100.00
49216;BME280;45943;53.148;8.204;2023-08-20T10:35:22;102269.31;;;27.18;100.00
49216;BME280;45943;53.148;8.204;2023-08-20T10:43:30;102271.13;;;27.60;100.00
49216;BME280;45943;53.148;8.204;2023-08-20T10:48:52;102259.75;;;28.05;100.00
49216;BME280;45943;53.148;8.204;2023-08-20T10:51:27;102266.09;;;28.46;100.00
49216;BME280;45943;53.148;8.204;2023-08-20T10:59:06;102266.66;;;28.90;100.00
49216;BME280;45943;53.148;8.204;2023-08-20T11:01:45;102264.47;;;28.78;100.00
49216;BME280;45943;53.148;8.204;2023-08-20T11:04:15;102268.81;;;29.07;100.00
49216;BME280;45943;53.148;8.204;2023-08-20T11:06:43;102260.28;;;28.96;94.90
49216;BME280;45943;53.148;8.204;2023-08-20T11:09:10;102265.63;;;29.04;96.06
49216;BME280;45943;53.148;8.204;2023-08-20T11:11:39;102266.03;;;29.07;94.90
49216;BME280;45943;53.148;8.204;2023-08-20T11:14:13;102273.47;;;28.94;100.00
49216;BME280;45943;53.148;8.204;2023-08-20T11:16:40;102271.66;;;28.60;94.80
49216;BME280;45943;53.148;8.204;2023-08-20T11:19:07;102276.13;;;28.61;99.10
49216;BME280;45943;53.148;8.204;2023-08-20T11:21:37;102264.75;;;28.97;97.92
49216;BME280;45943;53.148;8.204;2023-08-20T11:24:05;102273.72;;;29.12;95.72
49216;BME280;45943;53.148;8.204;2023-08-20T11:26:33;102269.22;;;28.98;92.27
49216;BME280;45943;53.148;8.204;2023-08-20T11:29:00;102270.31;;;29.03;96.22
49216;BME280;45943;53.148;8.204;2023-08-20T11:31:26;102274.34;;;29.27;87.56
49216;BME280;45943;53.148;8.204;2023-08-20T11:33:52;102265.66;;;29.50;87.48
49216;BME280;45943;53.148;8.204;2023-08-20T11:36:19;102263.47;;;29.72;83.78
49216;BME280;45943;53.148;8.204;2023-08-20T11:38:52;102263.03;;;29.68;79.54
49216;BME280;45943;53.148;8.204;2023-08-20T11:41:22;102263.25;;;29.47;82.29
49216;BME280;45943;53.148;8.204;2023-08-20T11:43:49;102271.78;;;29.19;84.35
49216;BME280;45943;53.148;8.204;2023-08-20T11:46:18;102265.19;;;29.13;81.75
49216;BME280;45943;53.148;8.204;2023-08-20T11:49:05;102262.84;;;29.43;82.76
49216;BME280;45943;53.148;8.204;2023-08-20T11:51:46;102261.13;;;29.69;83.05
49216;BME280;45943;53.148;8.204;2023-08-20T11:54:18;102253.94;;;29.48;80.69
49216;BME280;45943;53.148;8.204;2023-08-20T11:56:48;102257.09;;;29.58;74.12
49216;BME280;45943;53.148;8.204;2023-08-20T11:59:15;102263.59;;;30.04;74.46
49216;BME280;45943;53.148;8.204;2023-08-20T12:01:43;102252.41;;;30.37;71.87
49216;BME280;45943;53.148;8.204;2023-08-20T12:04:14;102256.97;;;30.63;70.79
49216;BME280;45943;53.148;8.204;2023-08-20T12:06:40;102260.81;;;30.68;71.10
49216;BME280;45943;53.148;8.204;2023-08-20T12:09:20;102256.59;;;30.52;74.37
49216;BME280;45943;53.148;8.204;2023-08-20T12:11:50;102255.63;;;30.78;74.27
49216;BME280;45943;53.148;8.204;2023-08-20T12:14:18;102258.28;;;30.92;70.64
49216;BME280;45943;53.148;8.204;2023-08-20T12:16:44;102256.19;;;30.49;71.29
49216;BME280;45943;53.148;8.204;2023-08-20T12:19:11;102259.25;;;30.27;74.11
49216;BME280;45943;53.148;8.204;2023-08-20T12:21:37;102251.47;;;29.98;71.09
49216;BME280;45943;53.148;8.204;2023-08-20T12:24:03;102249.72;;;30.17;72.01
49216;BME280;45943;53.148;8.204;2023-08-20T12:26:30;102250.22;;;29.94;68.56
49216;BME280;45943;53.148;8.204;2023-08-20T12:28:56;102250.78;;;30.22;72.85
49216;BME280;45943;53.148;8.204;2023-08-20T12:31:22;102250.56;;;30.62;68.84
49216;BME280;45943;53.148;8.204;2023-08-20T12:33:48;102251.97;;;31.09;66.73
49216;BME280;45943;53.148;8.204;2023-08-20T12:36:14;102252.44;;;31.31;60.23
49216;BME280;45943;53.148;8.204;2023-08-20T12:38:42;102249.38;;;31.39;58.42
49216;BME280;45943;53.148;8.204;2023-08-20T12:41:09;102242.63;;;31.54;57.05
49216;BME280;45943;53.148;8.204;2023-08-20T12:43:35;102241.78;;;31.53;54.92
49216;BME280;45943;53.148;8.204;2023-08-20T12:46:01;102237.31;;;31.52;54.38
49216;BME280;45943;53.148;8.204;2023-08-20T12:48:29;102240.72;;;31.73;54.64
49216;BME280;45943;53.148;8.204;2023-08-20T12:50:55;102239.66;;;31.92;53.39
49216;BME280;45943;53.148;8.204;2023-08-20T12:53:22;102231.63;;;31.84;49.19
49216;BME280;45943;53.148;8.204;2023-08-20T12:55:48;102232.13;;;31.37;49.67
49216;BME280;45943;53.148;8.204;2023-08-20T12:58:14;102235.84;;;31.25;50.32
49216;BME280;45943;53.148;8.204;2023-08-20T13:00:40;102235.78;;;31.56;51.61
49216;BME280;45943;53.148;8.204;2023-08-20T13:03:06;102240.50;;;31.92;51.93
49216;BME280;45943;53.148;8.204;2023-08-20T13:05:33;102233.47;;;32.27;49.82
49216;BME280;45943;53.148;8.204;2023-08-20T13:07:59;102234.25;;;32.34;48.03
49216;BME280;45943;53.148;8.204;2023-08-20T13:10:25;102224.41;;;32.49;49.57
49216;BME280;45943;53.148;8.204;2023-08-20T13:12:52;102225.28;;;32.62;48.42